sensor_id;sensor_type;location;lat;lon;timestamp;temperature;humidity
254;DHT22;590;48.772;8.846;2023-09-18T00:02:25;18.40;71.30
254;DHT22;590;48.772;8.846;2023-09-18T00:04:53;18.40;72.20
254;DHT22;590;48.772;8.846;2023-09-18T00:07:21;18.40;71.60
254;DHT22;590;48.772;8.846;2023-09-18T00:09:49;18.30;72.40
254;DHT22;590;48.772;8.846;2023-09-18T00:12:18;18.40;72.60
254;DHT22;590;48.772;8.846;2023-09-18T00:14:48;18.30;72.30
254;DHT22;590;48.772;8.846;2023-09-18T00:17:17;18.30;72.60
254;DHT22;590;48.772;8.846;2023-09-18T00:19:46;18.30;72.60
254;DHT22;590;48.772;8.846;2023-09-18T00:22:14;18.30;72.60
254;DHT22;590;48.772;8.846;2023-09-18T00:24:42;18.30;72.60
254;DHT22;590;48.772;8.846;2023-09-18T00:27:10;18.30;73.00
254;DHT22;590;48.772;8.846;2023-09-18T00:29:38;18.20;73.30
254;DHT22;590;48.772;8.846;2023-09-18T00:32:06;18.20;74.00
254;DHT22;590;48.772;8.846;2023-09-18T00:34:36;18.20;74.80
254;DHT22;590;48.772;8.846;2023-09-18T00:37:04;18.30;75.90
254;DHT22;590;48.772;8.846;2023-09-18T00:39:32;18.30;75.60
254;DHT22;590;48.772;8.846;2023-09-18T00:42:00;18.30;75.40
254;DHT22;590;48.772;8.846;2023-09-18T00:44:29;18.30;74.50
254;DHT22;590;48.772;8.846;2023-09-18T00:46:57;18.20;75.50
254;DHT22;590;48.772;8.846;2023-09-18T00:49:25;18.20;76.50
254;DHT22;590;48.772;8.846;2023-09-18T00:51:55;18.30;76.20
254;DHT22;590;48.772;8.846;2023-09-18T00:54:23;18.20;75.30
254;DHT22;590;48.772;8.846;2023-09-18T00:56:52;18.20;76.20
254;DHT22;590;48.772;8.846;2023-09-18T00:59:21;18.20;76.50
254;DHT22;590;48.772;8.846;2023-09-18T01:01:50;18.20;76.50
254;DHT22;590;48.772;8.846;2023-09-18T01:04:18;18.30;77.00
254;DHT22;590;48.772;8.846;2023-09-18T01:06:47;18.30;77.40
254;DHT22;590;48.772;8.846;2023-09-18T01:09:18;18.40;77.10
254;DHT22;590;48.772;8.846;2023-09-18T01:11:52;18.40;77.30
254;DHT22;590;48.772;8.846;2023-09-18T01:14:28;18.50;77.10
254;DHT22;590;48.772;8.846;2023-09-18T01:17:00;18.60;76.50
254;DHT22;590;48.772;8.846;2023-09-18T01:19:36;18.60;76.10
254;DHT22;590;48.772;8.846;2023-09-18T01:22:05;18.70;75.90
254;DHT22;590;48.772;8.846;2023-09-18T01:24:36;18.70;76.20
254;DHT22;590;48.772;8.846;2023-09-18T01:27:07;18.80;75.90
254;DHT22;590;48.772;8.846;2023-09-18T01:29:35;18.80;75.20
254;DHT22;590;48.772;8.846;2023-09-18T01:32:03;18.90;74.50
254;DHT22;590;48.772;8.846;2023-09-18T01:34:35;19.10;73.20
254;DHT22;590;48.772;8.846;2023-09-18T01:37:07;19.20;71.40
254;DHT22;590;48.772;8.846;2023-09-18T01:39:37;19.50;68.60
254;DHT22;590;48.772;8.846;2023-09-18T01:42:06;19.70;67.00
254;DHT22;590;48.772;8.846;2023-09-18T01:44:36;19.90;65.90
254;DHT22;590;48.772;8.846;2023-09-18T01:47:07;20.10;66.30
254;DHT22;590;48.772;8.846;2023-09-18T01:49:37;20.20;66.60
254;DHT22;590;48.772;8.846;2023-09-18T01:52:07;20.40;66.30
254;DHT22;590;48.772;8.846;2023-09-18T01:54:37;20.40;66.30
254;DHT22;590;48.772;8.846;2023-09-18T01:57:05;20.50;65.80
254;DHT22;590;48.772;8.846;2023-09-18T01:59:34;20.50;66.90
254;DHT22;590;48.772;8.846;2023-09-18T02:02:04;20.60;68.60
254;DHT22;590;48.772;8.846;2023-09-18T02:04:35;20.60;68.90
254;DHT22;590;48.772;8.846;2023-09-18T02:07:23;20.60;69.30
254;DHT22;590;48.772;8.846;2023-09-18T02:09:52;20.60;71.50
254;DHT22;590;48.772;8.846;2023-09-18T02:12:21;20.60;72.50
254;DHT22;590;48.772;8.846;2023-09-18T02:14:49;20.60;72.90
254;DHT22;590;48.772;8.846;2023-09-18T02:17:17;20.50;71.30
254;DHT22;590;48.772;8.846;2023-09-18T02:19:47;20.50;70.80
254;DHT22;590;48.772;8.846;2023-09-18T02:22:15;20.50;69.50
254;DHT22;590;48.772;8.846;2023-09-18T02:24:43;20.50;69.10
254;DHT22;590;48.772;8.846;2023-09-18T02:27:13;20.50;69.00
254;DHT22;590;48.772;8.846;2023-09-18T02:29:44;20.50;68.50
254;DHT22;590;48.772;8.846;2023-09-18T02:32:12;20.50;67.60
254;DHT22;590;48.772;8.846;2023-09-18T02:34:41;20.50;67.20
254;DHT22;590;48.772;8.846;2023-09-18T02:37:09;20.50;67.50
254;DHT22;590;48.772;8.846;2023-09-18T02:39:37;20.50;66.70
254;DHT22;590;48.772;8.846;2023-09-18T02:42:05;20.50;66.50
254;DHT22;590;48.772;8.846;2023-09-18T02:44:34;20.50;66.90
254;DHT22;590;48.772;8.846;2023-09-18T02:47:03;20.40;68.20
254;DHT22;590;48.772;8.846;2023-09-18T02:49:31;20.40;68.80
254;DHT22;590;48.772;8.846;2023-09-18T02:51:59;20.40;69.50
254;DHT22;590;48.772;8.846;2023-09-18T02:54:27;20.40;69.20
254;DHT22;590;48.772;8.846;2023-09-18T02:56:56;20.30;70.20
254;DHT22;590;48.772;8.846;2023-09-18T02:59:24;20.30;70.80
254;DHT22;590;48.772;8.846;2023-09-18T03:01:54;20.30;72.20
254;DHT22;590;48.772;8.846;2023-09-18T03:04:23;20.30;72.80
254;DHT22;590;48.772;8.846;2023-09-18T03:06:51;20.20;73.00
254;DHT22;590;48.772;8.846;2023-09-18T03:09:19;20.20;72.70
254;DHT22;590;48.772;8.846;2023-09-18T03:11:48;20.10;73.20
254;DHT22;590;48.772;8.846;2023-09-18T03:14:16;20.10;73.00
254;DHT22;590;48.772;8.846;2023-09-18T03:16:44;20.10;73.10
254;DHT22;590;48.772;8.846;2023-09-18T03:19:13;20.10;74.00
254;DHT22;590;48.772;8.846;2023-09-18T03:21:41;20.10;73.60
254;DHT22;590;48.772;8.846;2023-09-18T03:24:09;20.10;74.00
254;DHT22;590;48.772;8.846;2023-09-18T03:26:37;20.20;75.20
254;DHT22;590;48.772;8.846;2023-09-18T03:29:05;20.10;74.80
254;DHT22;590;48.772;8.846;2023-09-18T03:31:33;20.10;75.70
254;DHT22;590;48.772;8.846;2023-09-18T03:34:01;20.10;76.30
254;DHT22;590;48.772;8.846;2023-09-18T03:36:32;20.00;76.00
254;DHT22;590;48.772;8.846;2023-09-18T03:39:02;20.00;76.10
254;DHT22;590;48.772;8.846;2023-09-18T03:41:31;20.00;75.30
254;DHT22;590;48.772;8.846;2023-09-18T03:44:01;20.00;75.70
254;DHT22;590;48.772;8.846;2023-09-18T03:46:30;20.00;76.50
254;DHT22;590;48.772;8.846;2023-09-18T03:48:58;20.00;77.00
254;DHT22;590;48.772;8.846;2023-09-18T03:51:26;20.00;76.60
254;DHT22;590;48.772;8.846;2023-09-18T03:53:56;20.00;77.00
254;DHT22;590;48.772;8.846;2023-09-18T03:56:24;20.10;77.60
254;DHT22;590;48.772;8.846;2023-09-18T03:58:52;20.10;76.90
254;DHT22;590;48.772;8.846;2023-09-18T04:01:20;20.10;75.00
254;DHT22;590;48.772;8.846;2023-09-18T04:03:49;20.10;74.00
254;DHT22;590;48.772;8.846;2023-09-18T04:06:17;20.20;74.00
254;DHT22;590;48.772;8.846;2023-09-18T04:08:47;20.20;73.30
254;DHT22;590;48.772;8.846;2023-09-18T04:11:17;20.30;73.20
254;DHT22;590;48.772;8.846;2023-09-18T04:13:46;20.30;72.60
254;DHT22;590;48.772;8.846;2023-09-18T04:16:14;20.40;72.90
254;DHT22;590;48.772;8.846;2023-09-18T04:18:44;20.40;72.60
254;DHT22;590;48.772;8.846;2023-09-18T04:21:12;20.40;72.10
254;DHT22;590;48.772;8.846;2023-09-18T04:23:40;20.40;72.30
254;DHT22;590;48.772;8.846;2023-09-18T04:26:08;20.50;72.70
254;DHT22;590;48.772;8.846;2023-09-18T04:28:39;20.40;72.90
254;DHT22;590;48.772;8.846;2023-09-18T04:31:07;20.40;73.40
254;DHT22;590;48.772;8.846;2023-09-18T04:33:36;20.40;73.80
254;DHT22;590;48.772;8.846;2023-09-18T04:36:06;20.40;74.50
254;DHT22;590;48.772;8.846;2023-09-18T04:38:34;20.40;75.00
254;DHT22;590;48.772;8.846;2023-09-18T04:41:03;20.40;75.70
254;DHT22;590;48.772;8.846;2023-09-18T04:43:31;20.30;76.50
254;DHT22;590;48.772;8.846;2023-09-18T04:46:00;20.30;77.10
254;DHT22;590;48.772;8.846;2023-09-18T04:48:32;20.20;76.70
254;DHT22;590;48.772;8.846;2023-09-18T04:51:00;20.20;76.60
254;DHT22;590;48.772;8.846;2023-09-18T04:53:30;20.20;76.90
254;DHT22;590;48.772;8.846;2023-09-18T04:55:59;20.20;77.10
254;DHT22;590;48.772;8.846;2023-09-18T04:58:27;20.20;77.00
254;DHT22;590;48.772;8.846;2023-09-18T05:00:55;20.10;76.60
254;DHT22;590;48.772;8.846;2023-09-18T05:03:25;20.10;76.20
254;DHT22;590;48.772;8.846;2023-09-18T05:05:56;20.10;76.60
254;DHT22;590;48.772;8.846;2023-09-18T05:08:24;20.10;77.00
254;DHT22;590;48.772;8.846;2023-09-18T05:10:52;20.10;76.80
254;DHT22;590;48.772;8.846;2023-09-18T05:13:20;20.10;77.00
254;DHT22;590;48.772;8.846;2023-09-18T05:15:48;20.10;77.80
254;DHT22;590;48.772;8.846;2023-09-18T05:18:16;20.10;78.50
254;DHT22;590;48.772;8.846;2023-09-18T05:20:46;20.10;78.50
254;DHT22;590;48.772;8.846;2023-09-18T05:23:14;20.10;78.90
254;DHT22;590;48.772;8.846;2023-09-18T05:25:44;20.10;78.30
254;DHT22;590;48.772;8.846;2023-09-18T05:28:12;20.10;77.80
254;DHT22;590;48.772;8.846;2023-09-18T05:30:40;20.20;78.00
254;DHT22;590;48.772;8.846;2023-09-18T05:33:09;20.10;78.10
254;DHT22;590;48.772;8.846;2023-09-18T05:35:40;20.20;78.20
254;DHT22;590;48.772;8.846;2023-09-18T05:38:10;20.10;77.90
254;DHT22;590;48.772;8.846;2023-09-18T05:40:40;20.10;78.50
254;DHT22;590;48.772;8.846;2023-09-18T05:43:10;20.10;78.70
254;DHT22;590;48.772;8.846;2023-09-18T05:45:39;20.10;79.20
254;DHT22;590;48.772;8.846;2023-09-18T05:48:07;20.10;78.70
254;DHT22;590;48.772;8.846;2023-09-18T05:50:36;20.10;79.30
254;DHT22;590;48.772;8.846;2023-09-18T05:53:04;20.10;79.30
254;DHT22;590;48.772;8.846;2023-09-18T05:55:34;20.10;79.30
254;DHT22;590;48.772;8.846;2023-09-18T05:58:02;20.20;79.30
254;DHT22;590;48.772;8.846;2023-09-18T06:00:31;20.20;79.10
254;DHT22;590;48.772;8.846;2023-09-18T06:03:00;20.30;78.50
254;DHT22;590;48.772;8.846;2023-09-18T06:05:31;20.30;78.30
254;DHT22;590;48.772;8.846;2023-09-18T06:08:00;20.40;78.50
254;DHT22;590;48.772;8.846;2023-09-18T06:10:29;20.40;78.40
254;DHT22;590;48.772;8.846;2023-09-18T06:12:58;20.40;77.70
254;DHT22;590;48.772;8.846;2023-09-18T06:15:31;20.40;77.30
254;DHT22;590;48.772;8.846;2023-09-18T06:17:59;20.50;76.70
254;DHT22;590;48.772;8.846;2023-09-18T06:20:28;20.50;76.20
254;DHT22;590;48.772;8.846;2023-09-18T06:22:56;20.50;75.80
254;DHT22;590;48.772;8.846;2023-09-18T06:25:24;20.60;75.80
254;DHT22;590;48.772;8.846;2023-09-18T06:27:52;20.60;75.70
254;DHT22;590;48.772;8.846;2023-09-18T06:30:21;20.60;75.20
254;DHT22;590;48.772;8.846;2023-09-18T06:32:49;20.60;74.90
254;DHT22;590;48.772;8.846;2023-09-18T06:35:20;20.60;74.40
254;DHT22;590;48.772;8.846;2023-09-18T06:37:48;20.70;73.30
254;DHT22;590;48.772;8.846;2023-09-18T06:40:16;20.70;72.50
254;DHT22;590;48.772;8.846;2023-09-18T06:42:44;20.70;72.70
254;DHT22;590;48.772;8.846;2023-09-18T06:45:12;20.80;72.90
254;DHT22;590;48.772;8.846;2023-09-18T06:47:42;20.80;70.70
254;DHT22;590;48.772;8.846;2023-09-18T06:50:10;20.80;69.30
254;DHT22;590;48.772;8.846;2023-09-18T06:52:39;20.80;68.60
254;DHT22;590;48.772;8.846;2023-09-18T06:55:08;20.90;67.90
254;DHT22;590;48.772;8.846;2023-09-18T06:57:36;20.90;66.30
254;DHT22;590;48.772;8.846;2023-09-18T07:00:05;20.90;65.40
254;DHT22;590;48.772;8.846;2023-09-18T07:02:33;20.90;65.90
254;DHT22;590;48.772;8.846;2023-09-18T07:05:04;21.00;65.60
254;DHT22;590;48.772;8.846;2023-09-18T07:07:33;21.10;65.30
254;DHT22;590;48.772;8.846;2023-09-18T07:10:01;21.10;64.70
254;DHT22;590;48.772;8.846;2023-09-18T07:12:31;21.10;64.70
254;DHT22;590;48.772;8.846;2023-09-18T07:15:01;21.10;64.30
254;DHT22;590;48.772;8.846;2023-09-18T07:17:31;21.10;62.80
254;DHT22;590;48.772;8.846;2023-09-18T07:20:00;21.10;62.50
254;DHT22;590;48.772;8.846;2023-09-18T07:22:37;21.10;62.40
254;DHT22;590;48.772;8.846;2023-09-18T07:25:06;21.10;61.40
254;DHT22;590;48.772;8.846;2023-09-18T07:27:34;21.10;61.80
254;DHT22;590;48.772;8.846;2023-09-18T07:30:06;21.20;61.90
254;DHT22;590;48.772;8.846;2023-09-18T07:32:34;21.20;60.90
254;DHT22;590;48.772;8.846;2023-09-18T07:35:06;21.20;60.40
254;DHT22;590;48.772;8.846;2023-09-18T07:37:35;21.20;60.00
254;DHT22;590;48.772;8.846;2023-09-18T07:40:06;21.20;60.50
254;DHT22;590;48.772;8.846;2023-09-18T07:42:34;21.20;60.50
254;DHT22;590;48.772;8.846;2023-09-18T07:45:02;21.20;60.40
254;DHT22;590;48.772;8.846;2023-09-18T07:47:30;21.30;60.70
254;DHT22;590;48.772;8.846;2023-09-18T07:49:59;21.30;61.00
254;DHT22;590;48.772;8.846;2023-09-18T07:52:28;21.30;61.20
254;DHT22;590;48.772;8.846;2023-09-18T07:54:56;21.30;61.20
254;DHT22;590;48.772;8.846;2023-09-18T07:57:27;21.30;61.30
254;DHT22;590;48.772;8.846;2023-09-18T07:59:57;21.30;60.80
254;DHT22;590;48.772;8.846;2023-09-18T08:02:25;21.30;61.00
254;DHT22;590;48.772;8.846;2023-09-18T08:04:56;21.30;60.80
254;DHT22;590;48.772;8.846;2023-09-18T08:07:24;21.30;60.90
254;DHT22;590;48.772;8.846;2023-09-18T08:09:52;21.30;60.70
254;DHT22;590;48.772;8.846;2023-09-18T08:12:20;21.20;61.00
254;DHT22;590;48.772;8.846;2023-09-18T08:14:49;21.20;61.00
254;DHT22;590;48.772;8.846;2023-09-18T08:17:17;21.20;61.00
254;DHT22;590;48.772;8.846;2023-09-18T08:19:45;21.20;61.10
254;DHT22;590;48.772;8.846;2023-09-18T08:22:14;21.20;61.40
254;DHT22;590;48.772;8.846;2023-09-18T08:24:43;21.20;61.60
254;DHT22;590;48.772;8.846;2023-09-18T08:27:13;21.20;61.90
254;DHT22;590;48.772;8.846;2023-09-18T08:29:43;21.10;63.10
254;DHT22;590;48.772;8.846;2023-09-18T08:32:12;21.10;63.90
254;DHT22;590;48.772;8.846;2023-09-18T08:34:41;21.00;65.30
254;DHT22;590;48.772;8.846;2023-09-18T08:37:09;20.90;66.70
254;DHT22;590;48.772;8.846;2023-09-18T08:39:37;20.80;68.80
254;DHT22;590;48.772;8.846;2023-09-18T08:42:07;20.80;69.50
254;DHT22;590;48.772;8.846;2023-09-18T08:44:51;20.80;71.00
254;DHT22;590;48.772;8.846;2023-09-18T08:47:21;20.70;72.00
254;DHT22;590;48.772;8.846;2023-09-18T08:49:50;20.70;72.40
254;DHT22;590;48.772;8.846;2023-09-18T08:52:20;20.60;72.80
254;DHT22;590;48.772;8.846;2023-09-18T08:54:49;20.60;74.30
254;DHT22;590;48.772;8.846;2023-09-18T08:57:19;20.60;74.40
254;DHT22;590;48.772;8.846;2023-09-18T08:59:48;20.50;74.30
254;DHT22;590;48.772;8.846;2023-09-18T09:02:18;20.50;74.80
254;DHT22;590;48.772;8.846;2023-09-18T09:04:47;20.40;75.60
254;DHT22;590;48.772;8.846;2023-09-18T09:07:18;20.40;76.30
254;DHT22;590;48.772;8.846;2023-09-18T09:09:46;20.30;78.20
254;DHT22;590;48.772;8.846;2023-09-18T09:12:15;20.30;77.60
254;DHT22;590;48.772;8.846;2023-09-18T09:15:02;20.30;78.40
254;DHT22;590;48.772;8.846;2023-09-18T09:17:31;20.20;78.50
254;DHT22;590;48.772;8.846;2023-09-18T09:20:09;20.20;78.80
254;DHT22;590;48.772;8.846;2023-09-18T09:22:38;20.20;79.80
254;DHT22;590;48.772;8.846;2023-09-18T09:25:24;20.10;80.70
254;DHT22;590;48.772;8.846;2023-09-18T09:27:54;20.10;81.50
254;DHT22;590;48.772;8.846;2023-09-18T09:30:23;20.10;81.10
254;DHT22;590;48.772;8.846;2023-09-18T09:32:52;20.10;81.70
254;DHT22;590;48.772;8.846;2023-09-18T09:35:24;20.10;82.90
254;DHT22;590;48.772;8.846;2023-09-18T09:37:56;20.20;83.10
254;DHT22;590;48.772;8.846;2023-09-18T09:40:25;20.20;82.20
254;DHT22;590;48.772;8.846;2023-09-18T09:42:55;20.30;81.70
254;DHT22;590;48.772;8.846;2023-09-18T09:45:28;20.40;81.80
254;DHT22;590;48.772;8.846;2023-09-18T09:47:58;20.50;81.70
254;DHT22;590;48.772;8.846;2023-09-18T09:50:29;20.60;80.40
254;DHT22;590;48.772;8.846;2023-09-18T09:52:59;20.70;81.80
254;DHT22;590;48.772;8.846;2023-09-18T09:55:29;20.80;81.60
254;DHT22;590;48.772;8.846;2023-09-18T09:57:58;20.90;80.20
254;DHT22;590;48.772;8.846;2023-09-18T10:00:30;21.00;77.20
254;DHT22;590;48.772;8.846;2023-09-18T10:03:02;21.00;75.90
254;DHT22;590;48.772;8.846;2023-09-18T10:05:34;21.10;74.70
254;DHT22;590;48.772;8.846;2023-09-18T10:08:06;21.00;74.40
254;DHT22;590;48.772;8.846;2023-09-18T10:10:38;21.00;74.70
254;DHT22;590;48.772;8.846;2023-09-18T10:13:10;21.00;73.50
254;DHT22;590;48.772;8.846;2023-09-18T10:15:40;21.00;74.30
254;DHT22;590;48.772;8.846;2023-09-18T10:18:26;21.00;73.30
254;DHT22;590;48.772;8.846;2023-09-18T10:21:03;20.90;73.40
254;DHT22;590;48.772;8.846;2023-09-18T10:23:49;20.90;73.30
254;DHT22;590;48.772;8.846;2023-09-18T10:26:23;20.90;71.90
254;DHT22;590;48.772;8.846;2023-09-18T10:28:54;20.80;72.40
254;DHT22;590;48.772;8.846;2023-09-18T10:31:26;20.80;72.80
254;DHT22;590;48.772;8.846;2023-09-18T10:33:56;20.80;73.60
254;DHT22;590;48.772;8.846;2023-09-18T10:36:26;20.80;72.30
254;DHT22;590;48.772;8.846;2023-09-18T10:39:20;20.80;73.10
254;DHT22;590;48.772;8.846;2023-09-18T10:41:52;20.90;73.50
254;DHT22;590;48.772;8.846;2023-09-18T10:44:20;20.90;73.20
254;DHT22;590;48.772;8.846;2023-09-18T10:46:50;21.00;73.40
254;DHT22;590;48.772;8.846;2023-09-18T10:49:18;21.00;73.20
254;DHT22;590;48.772;8.846;2023-09-18T10:51:48;21.00;73.00
254;DHT22;590;48.772;8.846;2023-09-18T10:54:22;21.00;73.20
254;DHT22;590;48.772;8.846;2023-09-18T10:56:50;21.00;72.80
254;DHT22;590;48.772;8.846;2023-09-18T10:59:20;21.00;73.20
254;DHT22;590;48.772;8.846;2023-09-18T11:01:50;20.90;73.70
254;DHT22;590;48.772;8.846;2023-09-18T11:04:20;20.90;74.50
254;DHT22;590;48.772;8.846;2023-09-18T11:07:05;20.90;74.30
254;DHT22;590;48.772;8.846;2023-09-18T11:09:42;20.90;74.40
254;DHT22;590;48.772;8.846;2023-09-18T11:12:10;20.90;73.50
254;DHT22;590;48.772;8.846;2023-09-18T11:14:59;21.00;73.90
254;DHT22;590;48.772;8.846;2023-09-18T11:17:32;21.00;74.50
254;DHT22;590;48.772;8.846;2023-09-18T11:20:09;21.10;74.70
254;DHT22;590;48.772;8.846;2023-09-18T11:22:46;21.20;74.80
254;DHT22;590;48.772;8.846;2023-09-18T11:25:37;21.30;73.30
254;DHT22;590;48.772;8.846;2023-09-18T11:28:06;21.40;72.90
254;DHT22;590;48.772;8.846;2023-09-18T11:30:37;21.40;72.90
254;DHT22;590;48.772;8.846;2023-09-18T11:33:06;21.50;71.10
254;DHT22;590;48.772;8.846;2023-09-18T11:35:36;21.60;69.70
254;DHT22;590;48.772;8.846;2023-09-18T11:38:07;21.60;68.90
254;DHT22;590;48.772;8.846;2023-09-18T11:40:37;21.60;68.70
254;DHT22;590;48.772;8.846;2023-09-18T11:43:23;21.60;68.20
254;DHT22;590;48.772;8.846;2023-09-18T11:45:59;21.60;67.20
254;DHT22;590;48.772;8.846;2023-09-18T11:48:29;21.50;67.90
254;DHT22;590;48.772;8.846;2023-09-18T11:51:01;21.60;68.60
254;DHT22;590;48.772;8.846;2023-09-18T11:53:35;21.60;69.50
254;DHT22;590;48.772;8.846;2023-09-18T11:56:10;21.70;68.30
254;DHT22;590;48.772;8.846;2023-09-18T11:58:48;21.70;67.70
254;DHT22;590;48.772;8.846;2023-09-18T12:01:17;21.70;68.00
254;DHT22;590;48.772;8.846;2023-09-18T12:03:46;21.60;68.00
254;DHT22;590;48.772;8.846;2023-09-18T12:06:16;21.60;68.40
254;DHT22;590;48.772;8.846;2023-09-18T12:08:45;21.60;69.00
254;DHT22;590;48.772;8.846;2023-09-18T12:11:14;21.60;70.00
254;DHT22;590;48.772;8.846;2023-09-18T12:13:46;21.60;69.20
254;DHT22;590;48.772;8.846;2023-09-18T12:16:16;21.60;69.10
254;DHT22;590;48.772;8.846;2023-09-18T12:18:45;21.80;68.30
254;DHT22;590;48.772;8.846;2023-09-18T12:21:15;21.80;67.40
254;DHT22;590;48.772;8.846;2023-09-18T12:23:44;21.90;67.50
254;DHT22;590;48.772;8.846;2023-09-18T12:26:14;22.10;66.90
254;DHT22;590;48.772;8.846;2023-09-18T12:28:43;22.20;65.90
254;DHT22;590;48.772;8.846;2023-09-18T12:31:12;22.30;63.30
254;DHT22;590;48.772;8.846;2023-09-18T12:33:43;22.30;62.00
254;DHT22;590;48.772;8.846;2023-09-18T12:36:18;22.40;62.00
254;DHT22;590;48.772;8.846;2023-09-18T12:38:55;22.50;61.40
254;DHT22;590;48.772;8.846;2023-09-18T12:41:24;22.70;61.50
254;DHT22;590;48.772;8.846;2023-09-18T12:43:59;22.80;60.00
254;DHT22;590;48.772;8.846;2023-09-18T12:46:27;23.00;58.20
254;DHT22;590;48.772;8.846;2023-09-18T12:48:58;23.10;57.30
254;DHT22;590;48.772;8.846;2023-09-18T12:51:30;23.10;54.30
254;DHT22;590;48.772;8.846;2023-09-18T12:53:59;23.20;54.90
254;DHT22;590;48.772;8.846;2023-09-18T12:56:28;23.20;54.40
254;DHT22;590;48.772;8.846;2023-09-18T12:58:57;23.30;53.80
254;DHT22;590;48.772;8.846;2023-09-18T13:01:45;23.40;53.50
254;DHT22;590;48.772;8.846;2023-09-18T13:04:14;23.50;53.50
254;DHT22;590;48.772;8.846;2023-09-18T13:06:43;23.60;53.20
254;DHT22;590;48.772;8.846;2023-09-18T13:09:17;23.60;48.50
254;DHT22;590;48.772;8.846;2023-09-18T13:11:53;23.70;48.50
254;DHT22;590;48.772;8.846;2023-09-18T13:14:21;23.70;47.30
254;DHT22;590;48.772;8.846;2023-09-18T13:16:49;23.70;48.40
254;DHT22;590;48.772;8.846;2023-09-18T13:19:19;23.80;48.20
254;DHT22;590;48.772;8.846;2023-09-18T13:21:48;23.80;47.30
254;DHT22;590;48.772;8.846;2023-09-18T13:24:28;23.80;45.30
254;DHT22;590;48.772;8.846;2023-09-18T13:26:57;23.80;46.50
254;DHT22;590;48.772;8.846;2023-09-18T13:29:26;23.90;45.40
254;DHT22;590;48.772;8.846;2023-09-18T13:31:54;23.90;44.60
254;DHT22;590;48.772;8.846;2023-09-18T13:34:23;24.00;44.10
254;DHT22;590;48.772;8.846;2023-09-18T13:36:51;24.00;43.90
254;DHT22;590;48.772;8.846;2023-09-18T13:39:19;24.10;42.00
254;DHT22;590;48.772;8.846;2023-09-18T13:41:48;24.00;42.80
254;DHT22;590;48.772;8.846;2023-09-18T13:44:16;24.10;41.50
254;DHT22;590;48.772;8.846;2023-09-18T13:46:48;24.00;41.60
254;DHT22;590;48.772;8.846;2023-09-18T13:49:16;23.90;40.50
254;DHT22;590;48.772;8.846;2023-09-18T13:51:45;24.00;42.40
254;DHT22;590;48.772;8.846;2023-09-18T13:54:13;24.00;43.30
254;DHT22;590;48.772;8.846;2023-09-18T13:56:41;24.10;42.50
254;DHT22;590;48.772;8.846;2023-09-18T13:59:10;24.10;41.20
254;DHT22;590;48.772;8.846;2023-09-18T14:01:38;24.10;41.70
254;DHT22;590;48.772;8.846;2023-09-18T14:04:06;24.10;42.90
254;DHT22;590;48.772;8.846;2023-09-18T14:06:34;24.00;41.90
254;DHT22;590;48.772;8.846;2023-09-18T14:09:03;24.00;40.70
254;DHT22;590;48.772;8.846;2023-09-18T14:11:32;24.00;41.30
254;DHT22;590;48.772;8.846;2023-09-18T14:14:04;24.00;42.20
254;DHT22;590;48.772;8.846;2023-09-18T14:16:33;24.00;42.40
254;DHT22;590;48.772;8.846;2023-09-18T14:19:01;24.00;42.40
254;DHT22;590;48.772;8.846;2023-09-18T14:21:29;24.00;41.20
254;DHT22;590;48.772;8.846;2023-09-18T14:24:00;24.00;42.40
254;DHT22;590;48.772;8.846;2023-09-18T14:26:30;24.00;41.70
254;DHT22;590;48.772;8.846;2023-09-18T14:28:58;24.10;41.90
254;DHT22;590;48.772;8.846;2023-09-18T14:31:26;24.20;41.40
254;DHT22;590;48.772;8.846;2023-09-18T14:33:54;24.20;40.90
254;DHT22;590;48.772;8.846;2023-09-18T14:36:24;24.20;38.50
254;DHT22;590;48.772;8.846;2023-09-18T14:38:52;24.30;39.80
254;DHT22;590;48.772;8.846;2023-09-18T14:41:22;24.30;40.40
254;DHT22;590;48.772;8.846;2023-09-18T14:43:53;24.30;38.90
254;DHT22;590;48.772;8.846;2023-09-18T14:46:21;24.30;38.60
254;DHT22;590;48.772;8.846;2023-09-18T14:48:49;24.30;38.60
254;DHT22;590;48.772;8.846;2023-09-18T14:51:17;24.20;38.00
254;DHT22;590;48.772;8.846;2023-09-18T14:53:45;24.10;38.50
254;DHT22;590;48.772;8.846;2023-09-18T14:56:13;24.00;38.40
254;DHT22;590;48.772;8.846;2023-09-18T14:58:41;24.00;40.00
254;DHT22;590;48.772;8.846;2023-09-18T15:01:12;23.90;39.10
254;DHT22;590;48.772;8.846;2023-09-18T15:03:41;23.90;39.50
254;DHT22;590;48.772;8.846;2023-09-18T15:06:11;23.80;40.60
254;DHT22;590;48.772;8.846;2023-09-18T15:08:39;23.80;40.80
254;DHT22;590;48.772;8.846;2023-09-18T15:11:07;23.70;40.50
254;DHT22;590;48.772;8.846;2023-09-18T15:13:35;23.70;39.90
254;DHT22;590;48.772;8.846;2023-09-18T15:16:04;23.60;39.90
254;DHT22;590;48.772;8.846;2023-09-18T15:18:34;23.60;40.90
254;DHT22;590;48.772;8.846;2023-09-18T15:21:03;23.60;42.30
254;DHT22;590;48.772;8.846;2023-09-18T15:23:31;23.50;41.80
254;DHT22;590;48.772;8.846;2023-09-18T15:25:59;23.50;42.50
254;DHT22;590;48.772;8.846;2023-09-18T15:28:28;23.60;42.90
254;DHT22;590;48.772;8.846;2023-09-18T15:30:57;23.50;40.30
254;DHT22;590;48.772;8.846;2023-09-18T15:33:25;23.40;41.60
254;DHT22;590;48.772;8.846;2023-09-18T15:35:54;23.40;41.50
254;DHT22;590;48.772;8.846;2023-09-18T15:38:23;23.40;40.90
254;DHT22;590;48.772;8.846;2023-09-18T15:40:51;23.40;41.00
254;DHT22;590;48.772;8.846;2023-09-18T15:43:19;23.40;41.40
254;DHT22;590;48.772;8.846;2023-09-18T15:45:47;23.30;40.80
254;DHT22;590;48.772;8.846;2023-09-18T15:48:15;23.30;42.10
254;DHT22;590;48.772;8.846;2023-09-18T15:50:44;23.20;41.40
254;DHT22;590;48.772;8.846;2023-09-18T15:53:14;23.10;41.80
254;DHT22;590;48.772;8.846;2023-09-18T15:55:42;23.10;41.60
254;DHT22;590;48.772;8.846;2023-09-18T15:58:10;23.00;42.60
254;DHT22;590;48.772;8.846;2023-09-18T16:00:38;22.90;43.90
254;DHT22;590;48.772;8.846;2023-09-18T16:03:07;22.80;44.00
254;DHT22;590;48.772;8.846;2023-09-18T16:05:35;22.80;45.90
254;DHT22;590;48.772;8.846;2023-09-18T16:08:03;22.60;45.70
254;DHT22;590;48.772;8.846;2023-09-18T16:10:33;22.60;46.50
254;DHT22;590;48.772;8.846;2023-09-18T16:13:01;22.50;46.80
254;DHT22;590;48.772;8.846;2023-09-18T16:15:30;22.40;47.00
254;DHT22;590;48.772;8.846;2023-09-18T16:17:58;22.30;46.80
254;DHT22;590;48.772;8.846;2023-09-18T16:20:26;22.30;46.90
254;DHT22;590;48.772;8.846;2023-09-18T16:22:54;22.10;48.10
254;DHT22;590;48.772;8.846;2023-09-18T16:25:22;22.10;48.40
254;DHT22;590;48.772;8.846;2023-09-18T16:27:51;22.00;49.50
254;DHT22;590;48.772;8.846;2023-09-18T16:30:20;22.00;49.80
254;DHT22;590;48.772;8.846;2023-09-18T16:32:49;21.90;50.20
254;DHT22;590;48.772;8.846;2023-09-18T16:35:17;21.80;50.70
254;DHT22;590;48.772;8.846;2023-09-18T16:37:45;21.80;51.20
254;DHT22;590;48.772;8.846;2023-09-18T16:40:13;21.70;52.00
254;DHT22;590;48.772;8.846;2023-09-18T16:42:41;21.70;52.20
254;DHT22;590;48.772;8.846;2023-09-18T16:45:12;21.70;52.20
254;DHT22;590;48.772;8.846;2023-09-18T16:47:40;21.60;52.40
254;DHT22;590;48.772;8.846;2023-09-18T16:50:09;21.60;52.00
254;DHT22;590;48.772;8.846;2023-09-18T16:52:37;21.50;52.10